Terminal Aerodrome Forecast
Issued by NWS St Louis, MO

Home | Current Version | Previous Version | Text Only | Print | Product List | Glossary On
Versions: 1 2 3 4 5 6 7 8 9 10 11 12 13 14 15 16 17 18 19 20 21 22 23
874
FTUS43 KLSX 241130
TAFCOU
TAF
KCOU 241130Z 2412/2512 19006KT P6SM SCT250
     FM241500 22008KT P6SM SCT040 BKN120
     FM250000 26006KT P6SM VCTS SCT050CB BKN100
     FM250400 35005KT P6SM BKN080=

USA.gov is the U.S. government's official web portal to all federal, state and local government web resources and services.